sensor_id;sensor_type;location;lat;lon;timestamp;P1;durP1;ratioP1;P2;durP2;ratioP2
12348;SDS011;5974;42.710;27.258;2024-02-26T00:00:14;8.50;;;6.87;;
12348;SDS011;5974;42.710;27.258;2024-02-26T00:02:41;10.00;;;7.30;;
12348;SDS011;5974;42.710;27.258;2024-02-26T00:05:09;9.57;;;6.83;;
12348;SDS011;5974;42.710;27.258;2024-02-26T00:07:36;11.10;;;7.67;;
12348;SDS011;5974;42.710;27.258;2024-02-26T00:10:04;11.73;;;7.23;;
12348;SDS011;5974;42.710;27.258;2024-02-26T00:12:31;8.87;;;7.97;;
12348;SDS011;5974;42.710;27.258;2024-02-26T00:14:58;14.70;;;7.70;;
12348;SDS011;5974;42.710;27.258;2024-02-26T00:17:25;10.90;;;8.20;;
12348;SDS011;5974;42.710;27.258;2024-02-26T00:19:52;12.20;;;7.80;;
12348;SDS011;5974;42.710;27.258;2024-02-26T00:22:20;8.60;;;7.70;;
12348;SDS011;5974;42.710;27.258;2024-02-26T00:24:48;9.40;;;7.67;;
12348;SDS011;5974;42.710;27.258;2024-02-26T00:27:14;7.83;;;7.00;;
12348;SDS011;5974;42.710;27.258;2024-02-26T00:29:41;9.83;;;7.63;;
12348;SDS011;5974;42.710;27.258;2024-02-26T00:32:08;9.73;;;7.47;;
12348;SDS011;5974;42.710;27.258;2024-02-26T00:34:35;10.00;;;8.20;;
12348;SDS011;5974;42.710;27.258;2024-02-26T00:37:01;10.67;;;8.20;;
12348;SDS011;5974;42.710;27.258;2024-02-26T00:39:30;10.90;;;8.03;;
12348;SDS011;5974;42.710;27.258;2024-02-26T00:41:56;10.53;;;8.57;;
12348;SDS011;5974;42.710;27.258;2024-02-26T00:44:23;10.40;;;8.10;;
12348;SDS011;5974;42.710;27.258;2024-02-26T00:46:50;10.63;;;8.40;;
12348;SDS011;5974;42.710;27.258;2024-02-26T00:49:16;9.20;;;7.43;;
12348;SDS011;5974;42.710;27.258;2024-02-26T00:51:43;9.83;;;7.80;;
12348;SDS011;5974;42.710;27.258;2024-02-26T00:54:10;8.33;;;7.40;;
12348;SDS011;5974;42.710;27.258;2024-02-26T00:56:38;9.87;;;7.70;;
12348;SDS011;5974;42.710;27.258;2024-02-26T00:59:05;8.97;;;7.67;;
12348;SDS011;5974;42.710;27.258;2024-02-26T01:01:31;9.67;;;6.70;;
12348;SDS011;5974;42.710;27.258;2024-02-26T01:03:58;7.40;;;6.60;;
12348;SDS011;5974;42.710;27.258;2024-02-26T01:06:25;11.60;;;6.67;;
12348;SDS011;5974;42.710;27.258;2024-02-26T01:08:52;9.77;;;6.70;;
12348;SDS011;5974;42.710;27.258;2024-02-26T01:11:18;10.07;;;7.57;;
12348;SDS011;5974;42.710;27.258;2024-02-26T01:13:46;28.03;;;17.57;;
12348;SDS011;5974;42.710;27.258;2024-02-26T01:16:13;11.47;;;9.67;;
12348;SDS011;5974;42.710;27.258;2024-02-26T01:18:40;7.37;;;6.40;;
12348;SDS011;5974;42.710;27.258;2024-02-26T01:21:07;8.90;;;6.23;;
12348;SDS011;5974;42.710;27.258;2024-02-26T01:23:34;8.07;;;6.20;;
12348;SDS011;5974;42.710;27.258;2024-02-26T01:26:01;7.70;;;5.77;;
12348;SDS011;5974;42.710;27.258;2024-02-26T01:28:29;7.93;;;6.63;;
12348;SDS011;5974;42.710;27.258;2024-02-26T01:30:58;7.53;;;6.70;;
12348;SDS011;5974;42.710;27.258;2024-02-26T01:33:25;7.67;;;5.70;;
12348;SDS011;5974;42.710;27.258;2024-02-26T01:35:52;8.20;;;6.33;;
12348;SDS011;5974;42.710;27.258;2024-02-26T01:38:19;8.90;;;6.47;;
12348;SDS011;5974;42.710;27.258;2024-02-26T01:40:46;8.63;;;6.37;;
12348;SDS011;5974;42.710;27.258;2024-02-26T01:43:12;7.57;;;6.13;;
12348;SDS011;5974;42.710;27.258;2024-02-26T01:45:39;9.03;;;6.30;;
12348;SDS011;5974;42.710;27.258;2024-02-26T01:48:07;8.83;;;6.40;;
12348;SDS011;5974;42.710;27.258;2024-02-26T01:50:35;8.27;;;6.27;;
12348;SDS011;5974;42.710;27.258;2024-02-26T01:53:03;9.67;;;6.60;;
12348;SDS011;5974;42.710;27.258;2024-02-26T01:55:31;9.43;;;6.90;;
12348;SDS011;5974;42.710;27.258;2024-02-26T01:57:58;7.23;;;6.50;;
12348;SDS011;5974;42.710;27.258;2024-02-26T02:00:25;7.60;;;6.50;;
12348;SDS011;5974;42.710;27.258;2024-02-26T02:02:53;9.43;;;6.87;;
12348;SDS011;5974;42.710;27.258;2024-02-26T02:05:22;7.23;;;5.90;;
12348;SDS011;5974;42.710;27.258;2024-02-26T02:07:49;6.87;;;6.20;;
12348;SDS011;5974;42.710;27.258;2024-02-26T02:10:16;7.57;;;6.20;;
12348;SDS011;5974;42.710;27.258;2024-02-26T02:12:47;9.77;;;6.30;;
12348;SDS011;5974;42.710;27.258;2024-02-26T02:15:14;6.97;;;6.20;;
12348;SDS011;5974;42.710;27.258;2024-02-26T02:17:41;9.53;;;7.00;;
12348;SDS011;5974;42.710;27.258;2024-02-26T02:20:08;10.57;;;7.17;;
12348;SDS011;5974;42.710;27.258;2024-02-26T02:22:37;7.40;;;5.70;;
12348;SDS011;5974;42.710;27.258;2024-02-26T02:25:04;7.47;;;5.93;;
12348;SDS011;5974;42.710;27.258;2024-02-26T02:27:31;7.30;;;5.47;;
12348;SDS011;5974;42.710;27.258;2024-02-26T02:29:58;10.50;;;5.60;;
12348;SDS011;5974;42.710;27.258;2024-02-26T02:32:25;7.37;;;6.03;;
12348;SDS011;5974;42.710;27.258;2024-02-26T02:34:53;6.70;;;6.10;;
12348;SDS011;5974;42.710;27.258;2024-02-26T02:37:21;7.50;;;5.50;;
12348;SDS011;5974;42.710;27.258;2024-02-26T02:39:49;9.63;;;6.10;;
12348;SDS011;5974;42.710;27.258;2024-02-26T02:42:15;9.37;;;6.20;;
12348;SDS011;5974;42.710;27.258;2024-02-26T02:44:43;6.20;;;5.60;;
12348;SDS011;5974;42.710;27.258;2024-02-26T02:47:10;12.13;;;6.70;;
12348;SDS011;5974;42.710;27.258;2024-02-26T02:49:37;6.20;;;5.60;;
12348;SDS011;5974;42.710;27.258;2024-02-26T02:52:04;8.23;;;6.13;;
12348;SDS011;5974;42.710;27.258;2024-02-26T02:54:31;7.87;;;5.40;;
12348;SDS011;5974;42.710;27.258;2024-02-26T02:56:59;8.67;;;6.00;;
12348;SDS011;5974;42.710;27.258;2024-02-26T02:59:26;5.70;;;5.10;;
12348;SDS011;5974;42.710;27.258;2024-02-26T03:01:53;7.87;;;5.70;;
12348;SDS011;5974;42.710;27.258;2024-02-26T03:04:20;8.33;;;6.67;;
12348;SDS011;5974;42.710;27.258;2024-02-26T03:06:46;8.20;;;5.77;;
12348;SDS011;5974;42.710;27.258;2024-02-26T03:09:13;6.27;;;5.43;;
12348;SDS011;5974;42.710;27.258;2024-02-26T03:11:40;9.70;;;6.13;;
12348;SDS011;5974;42.710;27.258;2024-02-26T03:14:08;9.17;;;5.87;;
12348;SDS011;5974;42.710;27.258;2024-02-26T03:16:35;6.77;;;5.97;;
12348;SDS011;5974;42.710;27.258;2024-02-26T03:19:01;8.60;;;6.03;;
12348;SDS011;5974;42.710;27.258;2024-02-26T03:21:29;8.33;;;6.60;;
12348;SDS011;5974;42.710;27.258;2024-02-26T03:23:56;9.77;;;6.50;;
12348;SDS011;5974;42.710;27.258;2024-02-26T03:26:22;10.23;;;7.60;;
12348;SDS011;5974;42.710;27.258;2024-02-26T03:28:49;9.87;;;6.83;;
12348;SDS011;5974;42.710;27.258;2024-02-26T03:31:17;7.73;;;6.00;;
12348;SDS011;5974;42.710;27.258;2024-02-26T03:33:44;8.00;;;5.43;;
12348;SDS011;5974;42.710;27.258;2024-02-26T03:36:11;8.67;;;6.07;;
12348;SDS011;5974;42.710;27.258;2024-02-26T03:38:38;7.33;;;5.77;;
12348;SDS011;5974;42.710;27.258;2024-02-26T03:41:05;17.27;;;12.37;;
12348;SDS011;5974;42.710;27.258;2024-02-26T03:43:33;9.57;;;6.60;;
12348;SDS011;5974;42.710;27.258;2024-02-26T03:46:00;6.23;;;5.40;;
12348;SDS011;5974;42.710;27.258;2024-02-26T03:48:28;10.50;;;5.67;;
12348;SDS011;5974;42.710;27.258;2024-02-26T03:50:55;7.70;;;6.40;;
12348;SDS011;5974;42.710;27.258;2024-02-26T03:53:22;10.17;;;8.07;;
12348;SDS011;5974;42.710;27.258;2024-02-26T03:55:48;11.27;;;8.40;;
12348;SDS011;5974;42.710;27.258;2024-02-26T03:58:17;8.30;;;6.57;;
12348;SDS011;5974;42.710;27.258;2024-02-26T04:00:43;11.60;;;7.93;;
12348;SDS011;5974;42.710;27.258;2024-02-26T04:03:12;9.07;;;7.03;;
12348;SDS011;5974;42.710;27.258;2024-02-26T04:05:40;12.43;;;6.90;;
12348;SDS011;5974;42.710;27.258;2024-02-26T04:08:07;8.60;;;6.63;;
12348;SDS011;5974;42.710;27.258;2024-02-26T04:10:35;8.23;;;7.10;;
12348;SDS011;5974;42.710;27.258;2024-02-26T04:13:03;9.53;;;6.23;;
12348;SDS011;5974;42.710;27.258;2024-02-26T04:15:31;11.07;;;6.47;;
12348;SDS011;5974;42.710;27.258;2024-02-26T04:17:58;9.67;;;6.63;;
12348;SDS011;5974;42.710;27.258;2024-02-26T04:20:24;8.37;;;6.67;;
12348;SDS011;5974;42.710;27.258;2024-02-26T04:22:52;9.07;;;7.03;;
12348;SDS011;5974;42.710;27.258;2024-02-26T04:25:19;9.83;;;7.30;;
12348;SDS011;5974;42.710;27.258;2024-02-26T04:27:46;7.23;;;6.27;;
12348;SDS011;5974;42.710;27.258;2024-02-26T04:30:14;9.87;;;6.53;;
12348;SDS011;5974;42.710;27.258;2024-02-26T04:32:42;8.20;;;6.53;;
12348;SDS011;5974;42.710;27.258;2024-02-26T04:35:09;6.80;;;5.90;;
12348;SDS011;5974;42.710;27.258;2024-02-26T04:37:36;11.67;;;6.73;;
12348;SDS011;5974;42.710;27.258;2024-02-26T04:40:05;9.83;;;7.00;;
12348;SDS011;5974;42.710;27.258;2024-02-26T04:42:33;7.47;;;6.57;;
12348;SDS011;5974;42.710;27.258;2024-02-26T04:44:59;9.63;;;7.37;;
12348;SDS011;5974;42.710;27.258;2024-02-26T04:47:26;9.20;;;7.20;;
12348;SDS011;5974;42.710;27.258;2024-02-26T04:49:53;8.67;;;7.67;;
12348;SDS011;5974;42.710;27.258;2024-02-26T04:52:19;8.93;;;7.77;;
12348;SDS011;5974;42.710;27.258;2024-02-26T04:54:46;12.60;;;8.37;;
12348;SDS011;5974;42.710;27.258;2024-02-26T04:57:14;12.47;;;8.07;;
12348;SDS011;5974;42.710;27.258;2024-02-26T04:59:43;12.47;;;9.17;;
12348;SDS011;5974;42.710;27.258;2024-02-26T05:02:10;13.27;;;8.83;;
12348;SDS011;5974;42.710;27.258;2024-02-26T05:04:37;9.50;;;8.50;;
12348;SDS011;5974;42.710;27.258;2024-02-26T05:07:04;12.90;;;9.23;;
12348;SDS011;5974;42.710;27.258;2024-02-26T05:09:31;14.93;;;8.00;;
12348;SDS011;5974;42.710;27.258;2024-02-26T05:11:58;12.93;;;9.60;;
12348;SDS011;5974;42.710;27.258;2024-02-26T05:14:26;10.93;;;8.87;;
12348;SDS011;5974;42.710;27.258;2024-02-26T05:16:53;10.60;;;7.87;;
12348;SDS011;5974;42.710;27.258;2024-02-26T05:19:19;10.20;;;8.67;;
12348;SDS011;5974;42.710;27.258;2024-02-26T05:21:46;11.37;;;8.33;;
12348;SDS011;5974;42.710;27.258;2024-02-26T05:24:15;9.87;;;8.37;;
12348;SDS011;5974;42.710;27.258;2024-02-26T05:26:42;10.10;;;8.00;;
12348;SDS011;5974;42.710;27.258;2024-02-26T05:29:09;9.63;;;8.50;;
12348;SDS011;5974;42.710;27.258;2024-02-26T05:31:37;12.03;;;8.50;;
12348;SDS011;5974;42.710;27.258;2024-02-26T05:34:04;12.87;;;9.20;;
12348;SDS011;5974;42.710;27.258;2024-02-26T05:36:30;11.97;;;8.57;;
12348;SDS011;5974;42.710;27.258;2024-02-26T05:38:58;15.13;;;9.87;;
12348;SDS011;5974;42.710;27.258;2024-02-26T05:41:25;21.03;;;9.77;;
12348;SDS011;5974;42.710;27.258;2024-02-26T05:43:52;13.20;;;9.20;;
12348;SDS011;5974;42.710;27.258;2024-02-26T05:46:19;15.53;;;9.40;;
12348;SDS011;5974;42.710;27.258;2024-02-26T05:48:49;10.97;;;9.70;;
12348;SDS011;5974;42.710;27.258;2024-02-26T05:51:17;17.33;;;10.73;;
12348;SDS011;5974;42.710;27.258;2024-02-26T05:53:44;19.17;;;10.40;;
12348;SDS011;5974;42.710;27.258;2024-02-26T05:56:11;17.33;;;9.60;;
12348;SDS011;5974;42.710;27.258;2024-02-26T05:58:38;27.23;;;13.10;;
12348;SDS011;5974;42.710;27.258;2024-02-26T06:01:05;20.07;;;13.83;;
12348;SDS011;5974;42.710;27.258;2024-02-26T06:03:32;26.67;;;15.83;;
12348;SDS011;5974;42.710;27.258;2024-02-26T06:06:00;23.53;;;16.67;;
12348;SDS011;5974;42.710;27.258;2024-02-26T06:08:27;20.00;;;14.40;;
12348;SDS011;5974;42.710;27.258;2024-02-26T06:10:53;29.70;;;16.80;;
12348;SDS011;5974;42.710;27.258;2024-02-26T06:13:20;31.73;;;26.63;;
12348;SDS011;5974;42.710;27.258;2024-02-26T06:15:47;30.57;;;23.07;;
12348;SDS011;5974;42.710;27.258;2024-02-26T06:18:14;28.80;;;24.47;;
12348;SDS011;5974;42.710;27.258;2024-02-26T06:20:41;26.57;;;22.30;;
12348;SDS011;5974;42.710;27.258;2024-02-26T06:23:09;40.50;;;25.83;;
12348;SDS011;5974;42.710;27.258;2024-02-26T06:25:36;35.23;;;25.17;;
12348;SDS011;5974;42.710;27.258;2024-02-26T06:28:03;54.43;;;41.83;;
12348;SDS011;5974;42.710;27.258;2024-02-26T06:30:30;48.33;;;38.47;;
12348;SDS011;5974;42.710;27.258;2024-02-26T06:32:56;31.60;;;23.00;;
12348;SDS011;5974;42.710;27.258;2024-02-26T06:35:23;32.67;;;23.50;;
12348;SDS011;5974;42.710;27.258;2024-02-26T06:37:50;28.77;;;21.27;;
12348;SDS011;5974;42.710;27.258;2024-02-26T06:40:19;26.97;;;18.30;;
12348;SDS011;5974;42.710;27.258;2024-02-26T06:42:46;22.87;;;18.30;;
12348;SDS011;5974;42.710;27.258;2024-02-26T06:45:13;28.83;;;21.27;;
12348;SDS011;5974;42.710;27.258;2024-02-26T06:47:39;26.87;;;21.30;;
12348;SDS011;5974;42.710;27.258;2024-02-26T06:50:08;28.87;;;21.67;;
12348;SDS011;5974;42.710;27.258;2024-02-26T06:52:35;29.97;;;23.00;;
12348;SDS011;5974;42.710;27.258;2024-02-26T06:55:02;27.53;;;21.77;;
12348;SDS011;5974;42.710;27.258;2024-02-26T06:57:31;31.33;;;24.20;;
12348;SDS011;5974;42.710;27.258;2024-02-26T06:59:58;28.70;;;23.00;;
12348;SDS011;5974;42.710;27.258;2024-02-26T07:02:24;30.97;;;24.27;;
12348;SDS011;5974;42.710;27.258;2024-02-26T07:04:51;27.43;;;21.33;;
12348;SDS011;5974;42.710;27.258;2024-02-26T07:07:18;31.00;;;21.53;;
12348;SDS011;5974;42.710;27.258;2024-02-26T07:09:45;28.27;;;19.97;;
12348;SDS011;5974;42.710;27.258;2024-02-26T07:12:11;26.03;;;20.40;;
12348;SDS011;5974;42.710;27.258;2024-02-26T07:14:40;24.00;;;20.47;;
12348;SDS011;5974;42.710;27.258;2024-02-26T07:17:07;31.93;;;20.80;;
12348;SDS011;5974;42.710;27.258;2024-02-26T07:19:34;28.43;;;21.63;;
12348;SDS011;5974;42.710;27.258;2024-02-26T07:22:01;43.03;;;27.47;;
12348;SDS011;5974;42.710;27.258;2024-02-26T07:24:27;36.53;;;23.83;;
12348;SDS011;5974;42.710;27.258;2024-02-26T07:26:54;46.13;;;26.97;;
12348;SDS011;5974;42.710;27.258;2024-02-26T07:29:21;40.70;;;26.83;;
12348;SDS011;5974;42.710;27.258;2024-02-26T07:31:49;44.27;;;29.47;;
12348;SDS011;5974;42.710;27.258;2024-02-26T07:34:15;48.07;;;34.50;;
12348;SDS011;5974;42.710;27.258;2024-02-26T07:36:42;46.40;;;34.67;;
12348;SDS011;5974;42.710;27.258;2024-02-26T07:39:09;48.43;;;32.60;;
12348;SDS011;5974;42.710;27.258;2024-02-26T07:41:36;37.30;;;28.17;;
12348;SDS011;5974;42.710;27.258;2024-02-26T07:44:04;39.30;;;27.93;;
12348;SDS011;5974;42.710;27.258;2024-02-26T07:46:30;28.80;;;20.73;;
12348;SDS011;5974;42.710;27.258;2024-02-26T07:48:59;28.23;;;19.73;;
12348;SDS011;5974;42.710;27.258;2024-02-26T07:51:25;27.33;;;17.67;;
12348;SDS011;5974;42.710;27.258;2024-02-26T07:53:52;29.37;;;15.27;;
12348;SDS011;5974;42.710;27.258;2024-02-26T07:56:19;21.30;;;10.63;;
12348;SDS011;5974;42.710;27.258;2024-02-26T07:58:45;21.03;;;11.37;;
12348;SDS011;5974;42.710;27.258;2024-02-26T08:01:12;18.67;;;11.50;;
12348;SDS011;5974;42.710;27.258;2024-02-26T08:03:40;16.13;;;12.57;;
12348;SDS011;5974;42.710;27.258;2024-02-26T08:06:09;16.57;;;11.93;;
12348;SDS011;5974;42.710;27.258;2024-02-26T08:08:35;14.73;;;10.60;;
12348;SDS011;5974;42.710;27.258;2024-02-26T08:11:02;14.80;;;12.13;;
12348;SDS011;5974;42.710;27.258;2024-02-26T08:13:29;29.60;;;12.93;;
12348;SDS011;5974;42.710;27.258;2024-02-26T08:15:56;17.80;;;11.97;;
12348;SDS011;5974;42.710;27.258;2024-02-26T08:18:24;15.97;;;11.30;;
12348;SDS011;5974;42.710;27.258;2024-02-26T08:20:50;19.07;;;12.17;;
12348;SDS011;5974;42.710;27.258;2024-02-26T08:23:19;18.50;;;11.93;;
12348;SDS011;5974;42.710;27.258;2024-02-26T08:25:45;17.50;;;11.20;;
12348;SDS011;5974;42.710;27.258;2024-02-26T08:28:12;12.70;;;11.20;;
12348;SDS011;5974;42.710;27.258;2024-02-26T08:30:39;13.07;;;11.30;;
12348;SDS011;5974;42.710;27.258;2024-02-26T08:33:06;17.83;;;11.90;;
12348;SDS011;5974;42.710;27.258;2024-02-26T08:35:33;22.07;;;16.80;;
12348;SDS011;5974;42.710;27.258;2024-02-26T08:38:00;22.53;;;15.33;;
12348;SDS011;5974;42.710;27.258;2024-02-26T08:40:28;22.80;;;13.90;;
12348;SDS011;5974;42.710;27.258;2024-02-26T08:42:54;16.30;;;12.03;;
12348;SDS011;5974;42.710;27.258;2024-02-26T08:45:21;17.43;;;11.03;;
12348;SDS011;5974;42.710;27.258;2024-02-26T08:47:48;18.33;;;11.57;;
12348;SDS011;5974;42.710;27.258;2024-02-26T08:50:15;17.50;;;11.13;;
12348;SDS011;5974;42.710;27.258;2024-02-26T08:52:41;17.57;;;10.73;;
12348;SDS011;5974;42.710;27.258;2024-02-26T08:55:09;16.13;;;11.40;;
12348;SDS011;5974;42.710;27.258;2024-02-26T08:57:37;19.80;;;11.57;;
12348;SDS011;5974;42.710;27.258;2024-02-26T09:00:04;15.17;;;11.30;;
12348;SDS011;5974;42.710;27.258;2024-02-26T09:02:32;21.70;;;10.90;;
12348;SDS011;5974;42.710;27.258;2024-02-26T09:04:59;18.77;;;11.03;;
12348;SDS011;5974;42.710;27.258;2024-02-26T09:07:25;14.53;;;10.20;;
12348;SDS011;5974;42.710;27.258;2024-02-26T09:09:52;11.73;;;9.23;;
12348;SDS011;5974;42.710;27.258;2024-02-26T09:12:19;12.63;;;9.50;;
12348;SDS011;5974;42.710;27.258;2024-02-26T09:14:47;15.97;;;9.40;;
12348;SDS011;5974;42.710;27.258;2024-02-26T09:17:14;16.07;;;9.37;;
12348;SDS011;5974;42.710;27.258;2024-02-26T09:19:41;18.03;;;9.13;;
12348;SDS011;5974;42.710;27.258;2024-02-26T09:22:09;19.40;;;9.63;;
12348;SDS011;5974;42.710;27.258;2024-02-26T09:24:36;11.53;;;8.63;;
12348;SDS011;5974;42.710;27.258;2024-02-26T09:27:03;15.27;;;9.37;;
12348;SDS011;5974;42.710;27.258;2024-02-26T09:29:30;13.43;;;9.33;;
12348;SDS011;5974;42.710;27.258;2024-02-26T09:31:58;15.80;;;9.23;;
12348;SDS011;5974;42.710;27.258;2024-02-26T09:34:25;12.90;;;8.93;;
12348;SDS011;5974;42.710;27.258;2024-02-26T09:36:52;16.00;;;8.57;;
12348;SDS011;5974;42.710;27.258;2024-02-26T09:39:19;15.83;;;8.77;;
12348;SDS011;5974;42.710;27.258;2024-02-26T09:41:47;15.13;;;8.43;;
12348;SDS011;5974;42.710;27.258;2024-02-26T09:44:14;11.70;;;7.43;;
12348;SDS011;5974;42.710;27.258;2024-02-26T09:46:44;15.50;;;7.03;;
12348;SDS011;5974;42.710;27.258;2024-02-26T09:49:13;14.13;;;7.13;;
12348;SDS011;5974;42.710;27.258;2024-02-26T09:51:41;14.43;;;7.60;;
12348;SDS011;5974;42.710;27.258;2024-02-26T09:54:09;13.33;;;7.33;;
12348;SDS011;5974;42.710;27.258;2024-02-26T09:56:36;14.90;;;7.43;;
12348;SDS011;5974;42.710;27.258;2024-02-26T09:59:05;12.97;;;7.83;;
12348;SDS011;5974;42.710;27.258;2024-02-26T10:01:36;10.97;;;6.80;;
12348;SDS011;5974;42.710;27.258;2024-02-26T10:04:05;15.03;;;7.97;;
12348;SDS011;5974;42.710;27.258;2024-02-26T10:06:33;13.63;;;7.07;;
12348;SDS011;5974;42.710;27.258;2024-02-26T10:09:02;17.47;;;8.00;;
12348;SDS011;5974;42.710;27.258;2024-02-26T10:11:32;15.77;;;6.87;;
12348;SDS011;5974;42.710;27.258;2024-02-26T10:13:59;24.57;;;7.00;;
12348;SDS011;5974;42.710;27.258;2024-02-26T10:16:25;15.87;;;6.80;;
12348;SDS011;5974;42.710;27.258;2024-02-26T10:18:53;15.07;;;7.13;;
12348;SDS011;5974;42.710;27.258;2024-02-26T10:21:20;14.37;;;7.10;;
12348;SDS011;5974;42.710;27.258;2024-02-26T10:23:49;15.50;;;6.87;;
12348;SDS011;5974;42.710;27.258;2024-02-26T10:26:16;12.83;;;7.10;;
12348;SDS011;5974;42.710;27.258;2024-02-26T10:28:43;15.80;;;8.73;;
12348;SDS011;5974;42.710;27.258;2024-02-26T10:31:11;13.33;;;8.07;;
12348;SDS011;5974;42.710;27.258;2024-02-26T10:33:40;15.47;;;7.30;;
12348;SDS011;5974;42.710;27.258;2024-02-26T10:36:09;15.23;;;6.70;;
12348;SDS011;5974;42.710;27.258;2024-02-26T10:38:36;10.33;;;5.80;;
12348;SDS011;5974;42.710;27.258;2024-02-26T10:41:04;11.83;;;6.77;;
12348;SDS011;5974;42.710;27.258;2024-02-26T10:43:33;15.83;;;6.67;;
12348;SDS011;5974;42.710;27.258;2024-02-26T10:46:00;14.37;;;6.03;;
12348;SDS011;5974;42.710;27.258;2024-02-26T10:48:27;12.33;;;5.90;;
12348;SDS011;5974;42.710;27.258;2024-02-26T10:50:53;12.67;;;6.23;;
12348;SDS011;5974;42.710;27.258;2024-02-26T10:53:22;13.50;;;6.43;;
12348;SDS011;5974;42.710;27.258;2024-02-26T10:55:52;20.87;;;6.67;;
12348;SDS011;5974;42.710;27.258;2024-02-26T10:58:22;14.53;;;5.87;;
12348;SDS011;5974;42.710;27.258;2024-02-26T11:00:51;12.63;;;5.53;;
12348;SDS011;5974;42.710;27.258;2024-02-26T11:03:18;11.60;;;5.50;;
12348;SDS011;5974;42.710;27.258;2024-02-26T11:05:46;11.17;;;5.13;;
12348;SDS011;5974;42.710;27.258;2024-02-26T11:08:14;9.53;;;4.60;;
12348;SDS011;5974;42.710;27.258;2024-02-26T11:10:42;9.43;;;5.27;;
12348;SDS011;5974;42.710;27.258;2024-02-26T11:13:09;13.47;;;5.60;;
12348;SDS011;5974;42.710;27.258;2024-02-26T11:15:40;15.40;;;5.33;;
12348;SDS011;5974;42.710;27.258;2024-02-26T11:18:09;9.87;;;5.70;;
12348;SDS011;5974;42.710;27.258;2024-02-26T11:20:38;14.67;;;7.40;;
12348;SDS011;5974;42.710;27.258;2024-02-26T11:23:07;14.27;;;5.60;;
12348;SDS011;5974;42.710;27.258;2024-02-26T11:25:34;11.53;;;6.43;;
12348;SDS011;5974;42.710;27.258;2024-02-26T11:28:03;13.30;;;6.47;;
12348;SDS011;5974;42.710;27.258;2024-02-26T11:30:34;10.27;;;5.90;;
12348;SDS011;5974;42.710;27.258;2024-02-26T11:33:07;7.90;;;5.60;;
12348;SDS011;5974;42.710;27.258;2024-02-26T11:35:34;10.67;;;5.47;;
12348;SDS011;5974;42.710;27.258;2024-02-26T11:38:03;17.20;;;6.60;;
12348;SDS011;5974;42.710;27.258;2024-02-26T11:40:31;9.70;;;5.23;;
12348;SDS011;5974;42.710;27.258;2024-02-26T11:42:59;10.20;;;5.20;;
12348;SDS011;5974;42.710;27.258;2024-02-26T11:45:47;13.57;;;5.90;;
12348;SDS011;5974;42.710;27.258;2024-02-26T11:48:21;13.60;;;5.93;;
12348;SDS011;5974;42.710;27.258;2024-02-26T11:50:49;10.93;;;5.07;;
12348;SDS011;5974;42.710;27.258;2024-02-26T11:53:24;13.33;;;5.97;;
12348;SDS011;5974;42.710;27.258;2024-02-26T11:58:47;11.13;;;5.67;;
12348;SDS011;5974;42.710;27.258;2024-02-26T12:04:05;13.50;;;5.90;;
12348;SDS011;5974;42.710;27.258;2024-02-26T12:06:39;10.53;;;5.43;;
12348;SDS011;5974;42.710;27.258;2024-02-26T12:09:09;10.07;;;4.73;;
12348;SDS011;5974;42.710;27.258;2024-02-26T12:11:39;10.70;;;5.07;;
12348;SDS011;5974;42.710;27.258;2024-02-26T12:14:07;11.87;;;5.50;;
12348;SDS011;5974;42.710;27.258;2024-02-26T12:16:35;11.03;;;5.03;;
12348;SDS011;5974;42.710;27.258;2024-02-26T12:19:03;30.10;;;7.03;;
12348;SDS011;5974;42.710;27.258;2024-02-26T12:21:33;14.87;;;6.80;;
12348;SDS011;5974;42.710;27.258;2024-02-26T12:24:12;11.67;;;6.00;;
12348;SDS011;5974;42.710;27.258;2024-02-26T12:26:40;14.80;;;7.63;;
12348;SDS011;5974;42.710;27.258;2024-02-26T12:29:07;11.33;;;6.10;;
12348;SDS011;5974;42.710;27.258;2024-02-26T12:31:35;14.97;;;6.17;;
12348;SDS011;5974;42.710;27.258;2024-02-26T12:34:03;17.50;;;7.83;;
12348;SDS011;5974;42.710;27.258;2024-02-26T12:36:34;13.07;;;6.83;;
12348;SDS011;5974;42.710;27.258;2024-02-26T12:39:03;15.13;;;6.90;;
12348;SDS011;5974;42.710;27.258;2024-02-26T12:41:30;14.37;;;5.77;;
12348;SDS011;5974;42.710;27.258;2024-02-26T12:43:58;15.57;;;6.07;;
12348;SDS011;5974;42.710;27.258;2024-02-26T12:46:26;14.10;;;6.10;;
12348;SDS011;5974;42.710;27.258;2024-02-26T12:48:55;12.77;;;5.60;;
12348;SDS011;5974;42.710;27.258;2024-02-26T12:51:25;12.27;;;6.20;;
12348;SDS011;5974;42.710;27.258;2024-02-26T12:53:52;14.10;;;6.97;;
12348;SDS011;5974;42.710;27.258;2024-02-26T12:56:20;10.50;;;5.83;;
12348;SDS011;5974;42.710;27.258;2024-02-26T12:58:48;16.13;;;7.27;;
12348;SDS011;5974;42.710;27.258;2024-02-26T13:01:17;11.03;;;5.77;;
12348;SDS011;5974;42.710;27.258;2024-02-26T13:03:46;16.00;;;6.33;;
12348;SDS011;5974;42.710;27.258;2024-02-26T13:06:13;15.00;;;5.87;;
12348;SDS011;5974;42.710;27.258;2024-02-26T13:08:42;13.63;;;5.43;;
12348;SDS011;5974;42.710;27.258;2024-02-26T13:11:08;17.57;;;6.60;;
12348;SDS011;5974;42.710;27.258;2024-02-26T13:13:35;14.17;;;5.93;;
12348;SDS011;5974;42.710;27.258;2024-02-26T13:16:03;15.97;;;6.73;;
12348;SDS011;5974;42.710;27.258;2024-02-26T13:18:33;11.30;;;5.80;;
12348;SDS011;5974;42.710;27.258;2024-02-26T13:21:11;16.73;;;6.97;;
12348;SDS011;5974;42.710;27.258;2024-02-26T13:23:40;12.60;;;6.43;;
12348;SDS011;5974;42.710;27.258;2024-02-26T13:26:12;16.33;;;7.80;;
12348;SDS011;5974;42.710;27.258;2024-02-26T13:28:39;11.80;;;5.70;;
12348;SDS011;5974;42.710;27.258;2024-02-26T13:31:07;11.33;;;6.07;;
12348;SDS011;5974;42.710;27.258;2024-02-26T13:33:34;10.47;;;6.10;;
12348;SDS011;5974;42.710;27.258;2024-02-26T13:36:02;17.03;;;6.00;;
12348;SDS011;5974;42.710;27.258;2024-02-26T13:38:29;15.27;;;6.17;;
12348;SDS011;5974;42.710;27.258;2024-02-26T13:40:58;12.80;;;5.97;;
12348;SDS011;5974;42.710;27.258;2024-02-26T13:43:25;12.27;;;5.47;;
12348;SDS011;5974;42.710;27.258;2024-02-26T13:45:52;12.33;;;5.43;;
12348;SDS011;5974;42.710;27.258;2024-02-26T13:48:19;10.93;;;5.13;;
12348;SDS011;5974;42.710;27.258;2024-02-26T13:50:46;10.03;;;5.17;;
12348;SDS011;5974;42.710;27.258;2024-02-26T13:53:13;12.27;;;5.80;;
12348;SDS011;5974;42.710;27.258;2024-02-26T13:55:40;11.40;;;5.90;;
12348;SDS011;5974;42.710;27.258;2024-02-26T13:58:11;12.80;;;7.33;;
12348;SDS011;5974;42.710;27.258;2024-02-26T14:00:39;13.93;;;8.23;;
12348;SDS011;5974;42.710;27.258;2024-02-26T14:03:06;14.93;;;7.20;;
12348;SDS011;5974;42.710;27.258;2024-02-26T14:05:33;13.57;;;7.93;;
12348;SDS011;5974;42.710;27.258;2024-02-26T14:08:00;11.73;;;7.30;;
12348;SDS011;5974;42.710;27.258;2024-02-26T14:10:26;12.43;;;6.47;;
12348;SDS011;5974;42.710;27.258;2024-02-26T14:12:53;11.27;;;6.00;;
12348;SDS011;5974;42.710;27.258;2024-02-26T14:15:21;13.07;;;5.80;;
12348;SDS011;5974;42.710;27.258;2024-02-26T14:17:49;11.00;;;5.70;;
12348;SDS011;5974;42.710;27.258;2024-02-26T14:20:19;10.73;;;4.90;;
12348;SDS011;5974;42.710;27.258;2024-02-26T14:22:47;10.33;;;4.40;;
12348;SDS011;5974;42.710;27.258;2024-02-26T14:25:14;14.10;;;5.77;;
12348;SDS011;5974;42.710;27.258;2024-02-26T14:27:41;9.20;;;5.70;;
12348;SDS011;5974;42.710;27.258;2024-02-26T14:30:08;13.00;;;5.80;;
12348;SDS011;5974;42.710;27.258;2024-02-26T14:32:37;12.47;;;5.87;;
12348;SDS011;5974;42.710;27.258;2024-02-26T14:35:05;12.50;;;6.23;;
12348;SDS011;5974;42.710;27.258;2024-02-26T14:37:33;19.70;;;7.40;;
12348;SDS011;5974;42.710;27.258;2024-02-26T14:39:59;15.40;;;7.20;;
12348;SDS011;5974;42.710;27.258;2024-02-26T14:42:27;15.23;;;7.80;;